sensor_id;sensor_type;location;lat;lon;timestamp;P1;durP1;ratioP1;P2;durP2;ratioP2
47882;SDS011;37739;50.350;7.578;2023-02-20T00:01:49;2.70;;;2.50;;
47882;SDS011;37739;50.350;7.578;2023-02-20T00:04:18;4.50;;;3.03;;
47882;SDS011;37739;50.350;7.578;2023-02-20T00:06:44;2.87;;;2.60;;
47882;SDS011;37739;50.350;7.578;2023-02-20T00:09:10;3.20;;;2.90;;
47882;SDS011;37739;50.350;7.578;2023-02-20T00:11:35;3.90;;;3.50;;
47882;SDS011;37739;50.350;7.578;2023-02-20T00:14:06;3.37;;;3.07;;
47882;SDS011;37739;50.350;7.578;2023-02-20T00:16:32;4.53;;;3.37;;
47882;SDS011;37739;50.350;7.578;2023-02-20T00:18:57;3.60;;;3.30;;
47882;SDS011;37739;50.350;7.578;2023-02-20T00:21:23;3.20;;;2.90;;
47882;SDS011;37739;50.350;7.578;2023-02-20T00:23:48;3.70;;;3.30;;
47882;SDS011;37739;50.350;7.578;2023-02-20T00:26:16;3.60;;;3.13;;
47882;SDS011;37739;50.350;7.578;2023-02-20T00:28:43;4.37;;;3.97;;
47882;SDS011;37739;50.350;7.578;2023-02-20T00:31:11;3.43;;;3.07;;
47882;SDS011;37739;50.350;7.578;2023-02-20T00:33:38;3.83;;;3.53;;
47882;SDS011;37739;50.350;7.578;2023-02-20T00:36:03;4.13;;;3.73;;
47882;SDS011;37739;50.350;7.578;2023-02-20T00:38:31;3.80;;;3.50;;
47882;SDS011;37739;50.350;7.578;2023-02-20T00:40:59;3.67;;;3.37;;
47882;SDS011;37739;50.350;7.578;2023-02-20T00:43:24;4.03;;;3.63;;
47882;SDS011;37739;50.350;7.578;2023-02-20T00:45:52;3.43;;;3.13;;
47882;SDS011;37739;50.350;7.578;2023-02-20T00:48:22;6.00;;;3.80;;
47882;SDS011;37739;50.350;7.578;2023-02-20T00:50:48;3.80;;;3.50;;
47882;SDS011;37739;50.350;7.578;2023-02-20T00:53:17;4.03;;;3.47;;
47882;SDS011;37739;50.350;7.578;2023-02-20T00:55:43;4.60;;;3.17;;
47882;SDS011;37739;50.350;7.578;2023-02-20T00:58:08;3.43;;;3.10;;
47882;SDS011;37739;50.350;7.578;2023-02-20T01:00:36;3.40;;;2.63;;
47882;SDS011;37739;50.350;7.578;2023-02-20T01:03:01;4.20;;;3.10;;
47882;SDS011;37739;50.350;7.578;2023-02-20T01:05:29;3.30;;;3.00;;
47882;SDS011;37739;50.350;7.578;2023-02-20T01:07:54;3.47;;;3.17;;
47882;SDS011;37739;50.350;7.578;2023-02-20T01:10:24;3.70;;;3.40;;
47882;SDS011;37739;50.350;7.578;2023-02-20T01:12:49;3.53;;;2.83;;
47882;SDS011;37739;50.350;7.578;2023-02-20T01:15:15;3.60;;;3.30;;
47882;SDS011;37739;50.350;7.578;2023-02-20T01:17:40;3.90;;;3.50;;
47882;SDS011;37739;50.350;7.578;2023-02-20T01:20:06;5.10;;;3.50;;
47882;SDS011;37739;50.350;7.578;2023-02-20T01:22:32;3.67;;;2.93;;
47882;SDS011;37739;50.350;7.578;2023-02-20T01:24:58;3.73;;;3.37;;
47882;SDS011;37739;50.350;7.578;2023-02-20T01:27:23;3.57;;;3.27;;
47882;SDS011;37739;50.350;7.578;2023-02-20T01:29:50;3.97;;;3.47;;
47882;SDS011;37739;50.350;7.578;2023-02-20T01:32:18;4.20;;;3.80;;
47882;SDS011;37739;50.350;7.578;2023-02-20T01:34:43;3.80;;;3.40;;
47882;SDS011;37739;50.350;7.578;2023-02-20T01:37:12;5.17;;;4.10;;
47882;SDS011;37739;50.350;7.578;2023-02-20T01:39:41;4.10;;;3.70;;
47882;SDS011;37739;50.350;7.578;2023-02-20T01:42:07;5.27;;;4.27;;
47882;SDS011;37739;50.350;7.578;2023-02-20T01:44:37;4.70;;;3.83;;
47882;SDS011;37739;50.350;7.578;2023-02-20T01:47:06;5.13;;;4.63;;
47882;SDS011;37739;50.350;7.578;2023-02-20T01:52:31;5.17;;;4.60;;
47882;SDS011;37739;50.350;7.578;2023-02-20T01:58:00;5.47;;;4.90;;
47882;SDS011;37739;50.350;7.578;2023-02-20T02:00:33;6.30;;;4.97;;
47882;SDS011;37739;50.350;7.578;2023-02-20T02:05:41;5.00;;;4.17;;
47882;SDS011;37739;50.350;7.578;2023-02-20T02:08:10;5.70;;;5.07;;
47882;SDS011;37739;50.350;7.578;2023-02-20T02:10:42;5.80;;;4.50;;
47882;SDS011;37739;50.350;7.578;2023-02-20T02:13:14;5.47;;;4.90;;
47882;SDS011;37739;50.350;7.578;2023-02-20T02:15:39;7.87;;;5.93;;
47882;SDS011;37739;50.350;7.578;2023-02-20T02:18:14;5.30;;;4.80;;
47882;SDS011;37739;50.350;7.578;2023-02-20T02:32:03;6.10;;;5.60;;
47882;SDS011;37739;50.350;7.578;2023-02-20T02:37:22;7.77;;;5.80;;
47882;SDS011;37739;50.350;7.578;2023-02-20T02:40:01;5.60;;;5.10;;
47882;SDS011;37739;50.350;7.578;2023-02-20T02:45:16;7.03;;;6.33;;
47882;SDS011;37739;50.350;7.578;2023-02-20T02:47:54;10.00;;;6.43;;
47882;SDS011;37739;50.350;7.578;2023-02-20T02:50:31;6.90;;;6.30;;
47882;SDS011;37739;50.350;7.578;2023-02-20T02:53:00;7.77;;;6.27;;
47882;SDS011;37739;50.350;7.578;2023-02-20T02:55:28;9.60;;;6.73;;
47882;SDS011;37739;50.350;7.578;2023-02-20T02:57:59;8.83;;;6.20;;
47882;SDS011;37739;50.350;7.578;2023-02-20T03:00:34;6.90;;;6.20;;
47882;SDS011;37739;50.350;7.578;2023-02-20T03:06:00;9.07;;;6.93;;
47882;SDS011;37739;50.350;7.578;2023-02-20T03:08:36;8.60;;;7.80;;
47882;SDS011;37739;50.350;7.578;2023-02-20T03:11:15;7.40;;;5.70;;
47882;SDS011;37739;50.350;7.578;2023-02-20T03:19:25;9.03;;;7.30;;
47882;SDS011;37739;50.350;7.578;2023-02-20T03:21:57;7.37;;;6.57;;
47882;SDS011;37739;50.350;7.578;2023-02-20T03:24:29;8.60;;;7.30;;
47882;SDS011;37739;50.350;7.578;2023-02-20T03:27:21;8.70;;;7.40;;
47882;SDS011;37739;50.350;7.578;2023-02-20T03:29:53;9.70;;;7.40;;
47882;SDS011;37739;50.350;7.578;2023-02-20T03:32:23;9.63;;;7.40;;
47882;SDS011;37739;50.350;7.578;2023-02-20T03:35:10;11.20;;;6.50;;
47882;SDS011;37739;50.350;7.578;2023-02-20T03:37:56;9.80;;;6.70;;
47882;SDS011;37739;50.350;7.578;2023-02-20T03:40:43;8.03;;;6.53;;
47882;SDS011;37739;50.350;7.578;2023-02-20T03:43:27;9.20;;;6.50;;
47882;SDS011;37739;50.350;7.578;2023-02-20T03:46:00;8.50;;;6.33;;
47882;SDS011;37739;50.350;7.578;2023-02-20T03:48:43;9.40;;;6.93;;
47882;SDS011;37739;50.350;7.578;2023-02-20T03:51:17;10.10;;;7.60;;
47882;SDS011;37739;50.350;7.578;2023-02-20T03:54:00;9.53;;;6.77;;
47882;SDS011;37739;50.350;7.578;2023-02-20T03:56:30;8.60;;;6.57;;
47882;SDS011;37739;50.350;7.578;2023-02-20T03:59:45;9.90;;;7.13;;
47882;SDS011;37739;50.350;7.578;2023-02-20T04:01:55;8.50;;;6.67;;
47882;SDS011;37739;50.350;7.578;2023-02-20T04:04:25;9.30;;;6.77;;
47882;SDS011;37739;50.350;7.578;2023-02-20T04:06:55;7.17;;;6.40;;
47882;SDS011;37739;50.350;7.578;2023-02-20T04:09:25;7.63;;;5.97;;
47882;SDS011;37739;50.350;7.578;2023-02-20T04:11:58;7.70;;;5.80;;
47882;SDS011;37739;50.350;7.578;2023-02-20T04:14:33;7.73;;;6.20;;
47882;SDS011;37739;50.350;7.578;2023-02-20T04:17:04;6.97;;;5.73;;
47882;SDS011;37739;50.350;7.578;2023-02-20T04:19:42;6.20;;;5.60;;
47882;SDS011;37739;50.350;7.578;2023-02-20T04:22:11;6.87;;;5.30;;
47882;SDS011;37739;50.350;7.578;2023-02-20T04:24:53;5.67;;;4.63;;
47882;SDS011;37739;50.350;7.578;2023-02-20T04:27:25;7.97;;;5.37;;
47882;SDS011;37739;50.350;7.578;2023-02-20T04:29:53;5.43;;;4.93;;
47882;SDS011;37739;50.350;7.578;2023-02-20T04:32:21;8.30;;;6.33;;
47882;SDS011;37739;50.350;7.578;2023-02-20T04:34:46;7.97;;;4.73;;
47882;SDS011;37739;50.350;7.578;2023-02-20T04:37:13;6.67;;;4.83;;
47882;SDS011;37739;50.350;7.578;2023-02-20T04:39:40;5.43;;;4.90;;
47882;SDS011;37739;50.350;7.578;2023-02-20T04:42:07;5.00;;;4.10;;
47882;SDS011;37739;50.350;7.578;2023-02-20T04:44:32;5.30;;;4.47;;
47882;SDS011;37739;50.350;7.578;2023-02-20T04:47:00;6.77;;;4.43;;
47882;SDS011;37739;50.350;7.578;2023-02-20T04:49:27;5.40;;;4.30;;
47882;SDS011;37739;50.350;7.578;2023-02-20T04:51:53;5.77;;;5.13;;
47882;SDS011;37739;50.350;7.578;2023-02-20T04:54:21;4.90;;;4.40;;
47882;SDS011;37739;50.350;7.578;2023-02-20T04:56:50;5.70;;;4.70;;
47882;SDS011;37739;50.350;7.578;2023-02-20T04:59:15;4.97;;;4.33;;
47882;SDS011;37739;50.350;7.578;2023-02-20T05:01:43;6.20;;;4.20;;
47882;SDS011;37739;50.350;7.578;2023-02-20T05:04:12;4.60;;;4.10;;
47882;SDS011;37739;50.350;7.578;2023-02-20T05:06:40;7.13;;;4.47;;
47882;SDS011;37739;50.350;7.578;2023-02-20T05:09:07;6.20;;;4.60;;
47882;SDS011;37739;50.350;7.578;2023-02-20T05:11:34;5.90;;;4.37;;
47882;SDS011;37739;50.350;7.578;2023-02-20T05:14:00;6.57;;;4.70;;
47882;SDS011;37739;50.350;7.578;2023-02-20T05:16:27;7.23;;;4.00;;
47882;SDS011;37739;50.350;7.578;2023-02-20T05:18:55;4.37;;;3.50;;
47882;SDS011;37739;50.350;7.578;2023-02-20T05:21:23;3.67;;;3.37;;
47882;SDS011;37739;50.350;7.578;2023-02-20T05:24:09;7.07;;;4.07;;
47882;SDS011;37739;50.350;7.578;2023-02-20T05:26:35;5.63;;;3.97;;
47882;SDS011;37739;50.350;7.578;2023-02-20T05:29:00;7.20;;;4.47;;
47882;SDS011;37739;50.350;7.578;2023-02-20T05:31:25;5.60;;;4.40;;
47882;SDS011;37739;50.350;7.578;2023-02-20T05:33:55;5.60;;;4.13;;
47882;SDS011;37739;50.350;7.578;2023-02-20T05:36:23;4.60;;;4.20;;
47882;SDS011;37739;50.350;7.578;2023-02-20T05:38:48;9.93;;;4.40;;
47882;SDS011;37739;50.350;7.578;2023-02-20T05:41:16;8.53;;;5.10;;
47882;SDS011;37739;50.350;7.578;2023-02-20T05:43:42;7.63;;;4.40;;
47882;SDS011;37739;50.350;7.578;2023-02-20T05:46:11;6.83;;;4.90;;
47882;SDS011;37739;50.350;7.578;2023-02-20T05:48:38;7.53;;;4.57;;
47882;SDS011;37739;50.350;7.578;2023-02-20T05:51:04;4.80;;;3.70;;
47882;SDS011;37739;50.350;7.578;2023-02-20T05:53:29;4.13;;;3.70;;
47882;SDS011;37739;50.350;7.578;2023-02-20T05:55:55;5.93;;;5.07;;
47882;SDS011;37739;50.350;7.578;2023-02-20T05:58:23;5.20;;;3.80;;
47882;SDS011;37739;50.350;7.578;2023-02-20T06:00:54;4.50;;;4.10;;
47882;SDS011;37739;50.350;7.578;2023-02-20T06:03:19;4.70;;;3.80;;
47882;SDS011;37739;50.350;7.578;2023-02-20T06:05:44;8.10;;;5.37;;
47882;SDS011;37739;50.350;7.578;2023-02-20T06:08:10;5.37;;;4.87;;
47882;SDS011;37739;50.350;7.578;2023-02-20T06:10:40;4.37;;;3.97;;
47882;SDS011;37739;50.350;7.578;2023-02-20T06:13:05;8.93;;;3.97;;
47882;SDS011;37739;50.350;7.578;2023-02-20T06:15:30;5.80;;;4.33;;
47882;SDS011;37739;50.350;7.578;2023-02-20T06:17:58;5.10;;;4.20;;
47882;SDS011;37739;50.350;7.578;2023-02-20T06:20:23;4.77;;;4.30;;
47882;SDS011;37739;50.350;7.578;2023-02-20T06:22:49;4.80;;;3.70;;
47882;SDS011;37739;50.350;7.578;2023-02-20T06:25:16;3.87;;;3.30;;
47882;SDS011;37739;50.350;7.578;2023-02-20T06:27:46;6.33;;;4.93;;
47882;SDS011;37739;50.350;7.578;2023-02-20T06:30:14;7.37;;;4.63;;
47882;SDS011;37739;50.350;7.578;2023-02-20T06:32:42;6.47;;;4.50;;
47882;SDS011;37739;50.350;7.578;2023-02-20T06:35:07;5.43;;;4.90;;
47882;SDS011;37739;50.350;7.578;2023-02-20T06:37:33;7.03;;;4.40;;
47882;SDS011;37739;50.350;7.578;2023-02-20T06:39:58;4.57;;;3.10;;
47882;SDS011;37739;50.350;7.578;2023-02-20T06:42:24;4.70;;;3.97;;
47882;SDS011;37739;50.350;7.578;2023-02-20T06:44:51;5.30;;;4.20;;
47882;SDS011;37739;50.350;7.578;2023-02-20T06:47:19;4.43;;;3.80;;
47882;SDS011;37739;50.350;7.578;2023-02-20T06:49:44;4.37;;;3.90;;
47882;SDS011;37739;50.350;7.578;2023-02-20T06:52:12;8.70;;;5.60;;
47882;SDS011;37739;50.350;7.578;2023-02-20T06:54:40;7.90;;;5.13;;
47882;SDS011;37739;50.350;7.578;2023-02-20T06:57:05;4.50;;;4.10;;
47882;SDS011;37739;50.350;7.578;2023-02-20T06:59:30;4.90;;;4.37;;
47882;SDS011;37739;50.350;7.578;2023-02-20T07:01:57;4.47;;;3.97;;
47882;SDS011;37739;50.350;7.578;2023-02-20T07:04:23;6.33;;;4.53;;
47882;SDS011;37739;50.350;7.578;2023-02-20T07:06:52;5.77;;;4.70;;
47882;SDS011;37739;50.350;7.578;2023-02-20T07:09:17;5.77;;;4.50;;
47882;SDS011;37739;50.350;7.578;2023-02-20T07:11:49;10.03;;;6.07;;
47882;SDS011;37739;50.350;7.578;2023-02-20T07:14:17;8.07;;;5.90;;
47882;SDS011;37739;50.350;7.578;2023-02-20T07:16:44;7.40;;;5.40;;
47882;SDS011;37739;50.350;7.578;2023-02-20T07:19:09;9.20;;;5.50;;
47882;SDS011;37739;50.350;7.578;2023-02-20T07:21:37;8.43;;;6.17;;
47882;SDS011;37739;50.350;7.578;2023-02-20T07:24:05;5.83;;;5.03;;
47882;SDS011;37739;50.350;7.578;2023-02-20T07:26:31;9.47;;;6.10;;
47882;SDS011;37739;50.350;7.578;2023-02-20T07:29:01;10.60;;;6.30;;
47882;SDS011;37739;50.350;7.578;2023-02-20T07:31:26;5.37;;;4.73;;
47882;SDS011;37739;50.350;7.578;2023-02-20T07:33:52;7.77;;;6.13;;
47882;SDS011;37739;50.350;7.578;2023-02-20T07:36:19;6.57;;;5.97;;
47882;SDS011;37739;50.350;7.578;2023-02-20T07:38:55;8.60;;;6.77;;
47882;SDS011;37739;50.350;7.578;2023-02-20T07:41:25;9.03;;;5.90;;
47882;SDS011;37739;50.350;7.578;2023-02-20T07:43:56;9.57;;;5.90;;
47882;SDS011;37739;50.350;7.578;2023-02-20T07:46:24;9.73;;;5.73;;
47882;SDS011;37739;50.350;7.578;2023-02-20T07:48:51;6.50;;;5.60;;
47882;SDS011;37739;50.350;7.578;2023-02-20T07:51:19;6.10;;;5.50;;
47882;SDS011;37739;50.350;7.578;2023-02-20T07:53:48;6.53;;;5.70;;
47882;SDS011;37739;50.350;7.578;2023-02-20T07:56:14;5.63;;;4.10;;
47882;SDS011;37739;50.350;7.578;2023-02-20T07:58:40;7.77;;;5.67;;
47882;SDS011;37739;50.350;7.578;2023-02-20T08:01:06;9.50;;;6.30;;
47882;SDS011;37739;50.350;7.578;2023-02-20T08:03:33;10.17;;;5.37;;
47882;SDS011;37739;50.350;7.578;2023-02-20T08:06:01;9.00;;;6.80;;
47882;SDS011;37739;50.350;7.578;2023-02-20T08:08:29;6.90;;;5.50;;
47882;SDS011;37739;50.350;7.578;2023-02-20T08:10:57;8.57;;;5.77;;
47882;SDS011;37739;50.350;7.578;2023-02-20T08:13:25;7.60;;;5.53;;
47882;SDS011;37739;50.350;7.578;2023-02-20T08:15:55;7.30;;;5.10;;
47882;SDS011;37739;50.350;7.578;2023-02-20T08:18:22;6.57;;;5.50;;
47882;SDS011;37739;50.350;7.578;2023-02-20T08:20:50;8.80;;;5.43;;
47882;SDS011;37739;50.350;7.578;2023-02-20T08:23:17;7.00;;;5.73;;
47882;SDS011;37739;50.350;7.578;2023-02-20T08:25:47;6.57;;;5.97;;
47882;SDS011;37739;50.350;7.578;2023-02-20T08:28:13;6.80;;;5.07;;
47882;SDS011;37739;50.350;7.578;2023-02-20T08:30:39;6.57;;;5.47;;
47882;SDS011;37739;50.350;7.578;2023-02-20T08:33:04;7.83;;;5.63;;
47882;SDS011;37739;50.350;7.578;2023-02-20T08:35:30;7.90;;;6.33;;
47882;SDS011;37739;50.350;7.578;2023-02-20T08:38:01;6.87;;;4.97;;
47882;SDS011;37739;50.350;7.578;2023-02-20T08:40:28;6.30;;;5.67;;
47882;SDS011;37739;50.350;7.578;2023-02-20T08:42:53;6.67;;;6.03;;
47882;SDS011;37739;50.350;7.578;2023-02-20T08:45:19;6.13;;;4.83;;
47882;SDS011;37739;50.350;7.578;2023-02-20T08:47:47;5.90;;;5.23;;
47882;SDS011;37739;50.350;7.578;2023-02-20T08:50:13;6.70;;;4.73;;
47882;SDS011;37739;50.350;7.578;2023-02-20T08:52:41;5.60;;;5.00;;
47882;SDS011;37739;50.350;7.578;2023-02-20T08:55:07;8.17;;;6.17;;
47882;SDS011;37739;50.350;7.578;2023-02-20T08:57:32;7.40;;;5.80;;
47882;SDS011;37739;50.350;7.578;2023-02-20T08:59:59;8.60;;;5.40;;
47882;SDS011;37739;50.350;7.578;2023-02-20T09:02:27;7.10;;;4.70;;
47882;SDS011;37739;50.350;7.578;2023-02-20T09:04:57;6.03;;;5.50;;
47882;SDS011;37739;50.350;7.578;2023-02-20T09:07:23;6.77;;;5.30;;
47882;SDS011;37739;50.350;7.578;2023-02-20T09:09:51;7.17;;;5.83;;
47882;SDS011;37739;50.350;7.578;2023-02-20T09:12:16;6.53;;;5.73;;
47882;SDS011;37739;50.350;7.578;2023-02-20T09:14:45;7.23;;;5.90;;
47882;SDS011;37739;50.350;7.578;2023-02-20T09:17:11;6.50;;;5.80;;
47882;SDS011;37739;50.350;7.578;2023-02-20T09:19:36;8.00;;;6.47;;
47882;SDS011;37739;50.350;7.578;2023-02-20T09:22:01;7.93;;;5.33;;
47882;SDS011;37739;50.350;7.578;2023-02-20T09:24:30;6.80;;;5.13;;
47882;SDS011;37739;50.350;7.578;2023-02-20T09:27:01;5.53;;;5.03;;
47882;SDS011;37739;50.350;7.578;2023-02-20T09:29:28;6.80;;;5.33;;
47882;SDS011;37739;50.350;7.578;2023-02-20T09:31:58;6.13;;;4.80;;
47882;SDS011;37739;50.350;7.578;2023-02-20T09:34:24;9.00;;;5.97;;
47882;SDS011;37739;50.350;7.578;2023-02-20T09:36:50;7.67;;;5.60;;
47882;SDS011;37739;50.350;7.578;2023-02-20T09:39:15;9.63;;;5.70;;
47882;SDS011;37739;50.350;7.578;2023-02-20T09:46:57;7.43;;;5.83;;
47882;SDS011;37739;50.350;7.578;2023-02-20T09:49:28;8.63;;;5.20;;
47882;SDS011;37739;50.350;7.578;2023-02-20T09:52:02;6.43;;;5.07;;
47882;SDS011;37739;50.350;7.578;2023-02-20T09:54:36;5.57;;;4.27;;
47882;SDS011;37739;50.350;7.578;2023-02-20T09:57:08;5.20;;;4.70;;
47882;SDS011;37739;50.350;7.578;2023-02-20T09:59:37;5.67;;;5.07;;
47882;SDS011;37739;50.350;7.578;2023-02-20T10:04:45;6.27;;;5.07;;
47882;SDS011;37739;50.350;7.578;2023-02-20T10:07:20;6.00;;;4.53;;
47882;SDS011;37739;50.350;7.578;2023-02-20T10:09:51;7.37;;;4.20;;
47882;SDS011;37739;50.350;7.578;2023-02-20T10:12:21;8.87;;;6.20;;
47882;SDS011;37739;50.350;7.578;2023-02-20T10:20:36;5.70;;;4.67;;
47882;SDS011;37739;50.350;7.578;2023-02-20T10:26:02;4.90;;;4.40;;
47882;SDS011;37739;50.350;7.578;2023-02-20T10:28:30;7.77;;;5.30;;
47882;SDS011;37739;50.350;7.578;2023-02-20T10:31:00;7.37;;;5.60;;
47882;SDS011;37739;50.350;7.578;2023-02-20T10:33:40;6.33;;;5.70;;
47882;SDS011;37739;50.350;7.578;2023-02-20T10:36:55;8.53;;;5.40;;
47882;SDS011;37739;50.350;7.578;2023-02-20T10:39:12;7.93;;;5.93;;
47882;SDS011;37739;50.350;7.578;2023-02-20T10:41:45;10.40;;;5.67;;
47882;SDS011;37739;50.350;7.578;2023-02-20T10:44:35;7.90;;;5.33;;
47882;SDS011;37739;50.350;7.578;2023-02-20T10:52:30;6.77;;;5.53;;
47882;SDS011;37739;50.350;7.578;2023-02-20T10:57:27;6.13;;;5.00;;
47882;SDS011;37739;50.350;7.578;2023-02-20T11:02:29;7.90;;;5.47;;
47882;SDS011;37739;50.350;7.578;2023-02-20T11:05:01;8.77;;;6.50;;
47882;SDS011;37739;50.350;7.578;2023-02-20T11:07:32;6.03;;;4.87;;
47882;SDS011;37739;50.350;7.578;2023-02-20T11:09:58;9.70;;;5.83;;
47882;SDS011;37739;50.350;7.578;2023-02-20T11:12:33;6.97;;;5.40;;
47882;SDS011;37739;50.350;7.578;2023-02-20T11:15:07;6.37;;;5.20;;
47882;SDS011;37739;50.350;7.578;2023-02-20T11:17:38;7.57;;;5.97;;
47882;SDS011;37739;50.350;7.578;2023-02-20T11:20:05;6.80;;;5.43;;
47882;SDS011;37739;50.350;7.578;2023-02-20T11:22:50;6.70;;;5.90;;
47882;SDS011;37739;50.350;7.578;2023-02-20T11:25:17;7.40;;;5.53;;
47882;SDS011;37739;50.350;7.578;2023-02-20T11:27:55;8.03;;;5.57;;
47882;SDS011;37739;50.350;7.578;2023-02-20T11:30:31;6.63;;;5.47;;
47882;SDS011;37739;50.350;7.578;2023-02-20T11:33:05;6.70;;;5.27;;
47882;SDS011;37739;50.350;7.578;2023-02-20T11:35:38;6.23;;;4.70;;
47882;SDS011;37739;50.350;7.578;2023-02-20T11:40:47;7.37;;;5.70;;
47882;SDS011;37739;50.350;7.578;2023-02-20T11:43:32;7.03;;;5.47;;
47882;SDS011;37739;50.350;7.578;2023-02-20T11:46:32;8.13;;;6.13;;
47882;SDS011;37739;50.350;7.578;2023-02-20T11:51:37;7.23;;;5.07;;
47882;SDS011;37739;50.350;7.578;2023-02-20T11:54:05;8.40;;;6.70;;
47882;SDS011;37739;50.350;7.578;2023-02-20T12:00:07;7.67;;;5.27;;
47882;SDS011;37739;50.350;7.578;2023-02-20T12:03:03;8.27;;;7.00;;
47882;SDS011;37739;50.350;7.578;2023-02-20T12:05:44;8.30;;;5.93;;
47882;SDS011;37739;50.350;7.578;2023-02-20T12:11:05;7.30;;;6.13;;
47882;SDS011;37739;50.350;7.578;2023-02-20T12:13:35;7.13;;;6.40;;
47882;SDS011;37739;50.350;7.578;2023-02-20T12:24:15;7.27;;;5.80;;
47882;SDS011;37739;50.350;7.578;2023-02-20T12:26:49;7.33;;;6.13;;
47882;SDS011;37739;50.350;7.578;2023-02-20T12:42:55;7.63;;;5.90;;
47882;SDS011;37739;50.350;7.578;2023-02-20T12:45:27;6.97;;;5.07;;
47882;SDS011;37739;50.350;7.578;2023-02-20T12:48:13;7.40;;;5.77;;
47882;SDS011;37739;50.350;7.578;2023-02-20T13:01:25;6.50;;;4.53;;
47882;SDS011;37739;50.350;7.578;2023-02-20T13:06:21;8.10;;;5.07;;
47882;SDS011;37739;50.350;7.578;2023-02-20T13:11:39;5.97;;;3.97;;
47882;SDS011;37739;50.350;7.578;2023-02-20T13:19:22;6.17;;;4.30;;
47882;SDS011;37739;50.350;7.578;2023-02-20T13:22:14;5.20;;;4.37;;
47882;SDS011;37739;50.350;7.578;2023-02-20T13:24:40;5.53;;;4.30;;
47882;SDS011;37739;50.350;7.578;2023-02-20T13:27:07;4.63;;;4.17;;
47882;SDS011;37739;50.350;7.578;2023-02-20T13:29:59;4.37;;;3.67;;
47882;SDS011;37739;50.350;7.578;2023-02-20T13:32:43;6.37;;;3.80;;
47882;SDS011;37739;50.350;7.578;2023-02-20T13:38:15;5.17;;;4.00;;
47882;SDS011;37739;50.350;7.578;2023-02-20T13:56:17;5.93;;;3.50;;
47882;SDS011;37739;50.350;7.578;2023-02-20T13:58:48;4.43;;;3.83;;
47882;SDS011;37739;50.350;7.578;2023-02-20T14:01:20;7.20;;;4.00;;
47882;SDS011;37739;50.350;7.578;2023-02-20T14:04:04;7.27;;;3.77;;
47882;SDS011;37739;50.350;7.578;2023-02-20T14:06:30;5.17;;;4.10;;
47882;SDS011;37739;50.350;7.578;2023-02-20T14:09:08;5.30;;;3.80;;
47882;SDS011;37739;50.350;7.578;2023-02-20T14:11:35;5.33;;;3.83;;
47882;SDS011;37739;50.350;7.578;2023-02-20T14:14:16;5.77;;;3.40;;
47882;SDS011;37739;50.350;7.578;2023-02-20T14:16:50;4.87;;;3.73;;
47882;SDS011;37739;50.350;7.578;2023-02-20T14:19:18;4.70;;;3.67;;
47882;SDS011;37739;50.350;7.578;2023-02-20T14:21:51;4.30;;;3.50;;
47882;SDS011;37739;50.350;7.578;2023-02-20T14:24:29;6.13;;;3.90;;
47882;SDS011;37739;50.350;7.578;2023-02-20T14:26:54;5.87;;;4.30;;
47882;SDS011;37739;50.350;7.578;2023-02-20T14:29:28;5.93;;;4.03;;
47882;SDS011;37739;50.350;7.578;2023-02-20T14:31:56;5.17;;;4.40;;
47882;SDS011;37739;50.350;7.578;2023-02-20T14:42:44;3.67;;;3.33;;
47882;SDS011;37739;50.350;7.578;2023-02-20T14:45:14;6.10;;;4.43;;
47882;SDS011;37739;50.350;7.578;2023-02-20T14:47:53;4.27;;;3.50;;
47882;SDS011;37739;50.350;7.578;2023-02-20T14:50:24;4.47;;;3.60;;
47882;SDS011;37739;50.350;7.578;2023-02-20T14:53:05;5.63;;;4.20;;
47882;SDS011;37739;50.350;7.578;2023-02-20T14:55:41;5.23;;;3.97;;
47882;SDS011;37739;50.350;7.578;2023-02-20T14:58:13;4.73;;;3.73;;
47882;SDS011;37739;50.350;7.578;2023-02-20T15:00:41;4.83;;;3.57;;
47882;SDS011;37739;50.350;7.578;2023-02-20T15:03:29;4.83;;;3.43;;
47882;SDS011;37739;50.350;7.578;2023-02-20T15:06:00;4.60;;;3.70;;
47882;SDS011;37739;50.350;7.578;2023-02-20T15:08:30;5.80;;;3.97;;
47882;SDS011;37739;50.350;7.578;2023-02-20T15:11:04;4.80;;;3.20;;
47882;SDS011;37739;50.350;7.578;2023-02-20T15:13:37;4.20;;;3.23;;
47882;SDS011;37739;50.350;7.578;2023-02-20T15:16:06;3.73;;;3.40;;
47882;SDS011;37739;50.350;7.578;2023-02-20T15:18:39;3.93;;;3.40;;
47882;SDS011;37739;50.350;7.578;2023-02-20T15:21:07;3.97;;;2.80;;
47882;SDS011;37739;50.350;7.578;2023-02-20T15:23:39;4.47;;;3.93;;
47882;SDS011;37739;50.350;7.578;2023-02-20T15:26:25;4.57;;;3.20;;
47882;SDS011;37739;50.350;7.578;2023-02-20T15:31:58;5.13;;;3.20;;
47882;SDS011;37739;50.350;7.578;2023-02-20T15:34:40;5.87;;;3.33;;
47882;SDS011;37739;50.350;7.578;2023-02-20T15:37:25;3.90;;;3.10;;
47882;SDS011;37739;50.350;7.578;2023-02-20T15:39:52;5.33;;;3.40;;
47882;SDS011;37739;50.350;7.578;2023-02-20T15:42:19;5.10;;;3.47;;
47882;SDS011;37739;50.350;7.578;2023-02-20T15:44:45;3.93;;;2.87;;
47882;SDS011;37739;50.350;7.578;2023-02-20T15:47:15;3.23;;;2.90;;
47882;SDS011;37739;50.350;7.578;2023-02-20T15:49:41;6.00;;;3.47;;
47882;SDS011;37739;50.350;7.578;2023-02-20T15:52:11;4.60;;;3.70;;
47882;SDS011;37739;50.350;7.578;2023-02-20T15:54:39;6.43;;;4.03;;
47882;SDS011;37739;50.350;7.578;2023-02-20T15:57:10;5.40;;;3.43;;
47882;SDS011;37739;50.350;7.578;2023-02-20T15:59:39;5.73;;;2.87;;
47882;SDS011;37739;50.350;7.578;2023-02-20T16:02:07;5.80;;;3.60;;
47882;SDS011;37739;50.350;7.578;2023-02-20T16:04:43;5.70;;;2.70;;
47882;SDS011;37739;50.350;7.578;2023-02-20T16:07:08;5.10;;;2.60;;
47882;SDS011;37739;50.350;7.578;2023-02-20T16:09:33;7.17;;;3.50;;
47882;SDS011;37739;50.350;7.578;2023-02-20T16:12:03;4.60;;;3.13;;
47882;SDS011;37739;50.350;7.578;2023-02-20T16:14:29;3.60;;;3.23;;
47882;SDS011;37739;50.350;7.578;2023-02-20T16:16:57;4.30;;;3.00;;
47882;SDS011;37739;50.350;7.578;2023-02-20T16:19:24;4.60;;;3.23;;
47882;SDS011;37739;50.350;7.578;2023-02-20T16:21:49;3.80;;;3.20;;
47882;SDS011;37739;50.350;7.578;2023-02-20T16:24:20;4.03;;;3.30;;
47882;SDS011;37739;50.350;7.578;2023-02-20T16:26:46;4.77;;;3.60;;
47882;SDS011;37739;50.350;7.578;2023-02-20T16:29:24;7.63;;;4.40;;
47882;SDS011;37739;50.350;7.578;2023-02-20T16:34:24;3.90;;;3.50;;
47882;SDS011;37739;50.350;7.578;2023-02-20T16:36:51;4.10;;;3.37;;
47882;SDS011;37739;50.350;7.578;2023-02-20T16:39:16;4.00;;;3.33;;
47882;SDS011;37739;50.350;7.578;2023-02-20T16:41:42;4.30;;;3.57;;
47882;SDS011;37739;50.350;7.578;2023-02-20T16:44:20;6.17;;;3.53;;
47882;SDS011;37739;50.350;7.578;2023-02-20T16:46:50;4.13;;;3.13;;
47882;SDS011;37739;50.350;7.578;2023-02-20T16:49:15;6.43;;;3.20;;
47882;SDS011;37739;50.350;7.578;2023-02-20T16:51:41;5.87;;;3.80;;
47882;SDS011;37739;50.350;7.578;2023-02-20T16:54:15;3.47;;;3.03;;
47882;SDS011;37739;50.350;7.578;2023-02-20T16:56:40;5.10;;;3.17;;
47882;SDS011;37739;50.350;7.578;2023-02-20T16:59:05;4.33;;;3.10;;
47882;SDS011;37739;50.350;7.578;2023-02-20T17:01:33;5.50;;;3.23;;
47882;SDS011;37739;50.350;7.578;2023-02-20T17:04:01;4.90;;;3.10;;
47882;SDS011;37739;50.350;7.578;2023-02-20T17:06:27;5.10;;;3.07;;
47882;SDS011;37739;50.350;7.578;2023-02-20T17:08:56;5.07;;;3.37;;
47882;SDS011;37739;50.350;7.578;2023-02-20T17:11:27;5.60;;;4.30;;
47882;SDS011;37739;50.350;7.578;2023-02-20T17:13:52;4.23;;;3.60;;
47882;SDS011;37739;50.350;7.578;2023-02-20T17:16:18;4.43;;;3.30;;
47882;SDS011;37739;50.350;7.578;2023-02-20T17:18:43;7.00;;;3.80;;
47882;SDS011;37739;50.350;7.578;2023-02-20T17:21:09;3.63;;;3.10;;
47882;SDS011;37739;50.350;7.578;2023-02-20T17:23:36;4.90;;;3.60;;
47882;SDS011;37739;50.350;7.578;2023-02-20T17:26:02;6.10;;;3.47;;
47882;SDS011;37739;50.350;7.578;2023-02-20T17:28:27;5.90;;;3.60;;
47882;SDS011;37739;50.350;7.578;2023-02-20T17:30:53;4.40;;;3.73;;
47882;SDS011;37739;50.350;7.578;2023-02-20T17:33:21;4.93;;;3.63;;